Portland, ME

8:11 PM EDT en Agosto 29, 2014 (GMT -0400)
Portland International | Change Station
CLOSE
Current Station
Aeropuerto
Location: Portland,
Altura: 62 ft
Estaciones meteorológicas cercanas

Alt 62 ft 43.64 °N, 70.30 °W | Updated 20 minutes ago

Partly Cloudy
Parcialmente nublado
59 ° F
Sensación térmica 59 ° F
N
6
Viento Variable Viento desde SSO

Hoy
Alta -- | Baja -- ° F
--% Posibilidad de precipitaciones
Ayer
Alta -- | Baja -- ° F
Precip. -- pul
6:01 AM 7:21 PM
Creciente, 17% visible
Presión 30.24 pul
Visibilidad 10.0 Millas
Nubes Baja 5000 ft
Punto de rocío 48 ° F
Humedad 67%
Precipitaciones 0.00 pul
Espesor de la nieve No disponible.
UV 0 de una escala de 12
Polen 8.30 de una escala de 12
Ozono Buena
PM2.5 Buena
Flu Activity No disponible.
METAR KPWM 292351Z 21005KT 10SM FEW050 15/09 A3024 RMK AO2 SLP239 T01500089 10206 20150 53013

More Conditions Fewer Conditions

Presión 30.24 pul
Visibilidad 10.0 Millas
Nubes Baja 5000 ft
Punto de rocío 48 ° F
Humedad 67%
Precipitaciones 0.00 pul
Espesor de la nieve No disponible.
UV 0 de una escala de 12
Polen 8.30 de una escala de 12
Ozono Buena
PM2.5 Buena
Flu Activity No disponible.
METAR KPWM 292351Z 21005KT 10SM FEW050 15/09 A3024 RMK AO2 SLP239 T01500089 10206 20150 53013

More Conditions Fewer Conditions

10-Day Weather Forecast

Almanac

Astronomía

Aug. 29, 2014 Salida Puesta
Hora real 6:01 AM EDT 7:21 PM EDT
Crepúsculo civil 5:31 AM EDT 7:51 PM EDT
Crepúsculo náutico 4:55 AM EDT 8:27 PM EDT
Crepúsculo astronómico 4:17 AM EDT 9:05 PM EDT
Luna 9:56 AM EDT (8/29) 9:08 PM EDT (8/29)
Horas de luz 14h 19m
Horas de luz
13h 20m
Tomorrow will be 2m 51s shorter.
Creciente, 17% of the Moon is Illuminated
Hoy
Creciente
Sep 2
Cuarto creciente
Sep 8
Luna llena
Sep 15
Cuarto menguante
Sep 24
Nueva

Extremos de hoy

Máximos del estado Bajos del estado

Community

WunderPhotos

Upload Photos

1,748,382 ¡fotos cargadas!

Nearby

Calidad del aire

  Calidad del aire Índice AQ Contaminante
Ayer Buena
OZONE
Ayer Buena
PM2.5
Real Buena
OZONE
Real Buena
PM2.5
Viernes Buena
OZONE
Viernes Buena
PM2.5
Sábado Buena
OZONE
Sábado Buena
PM2.5
Domingo Buena
OZONE
Domingo Buena
PM2.5
Lunes Buena
OZONE
Lunes Buena
PM2.5
Martes Buena
OZONE
Martes Buena
PM2.5
Miércoles Buena
OZONE
Miércoles Buena
PM2.5

Grosos de nieve

Estación Profundido Altura
No tenemos constancia de nieve nueva.

Actividad de terremotos

Ciudad Distance Mag. Tiempo y dato
No hay informes recientes de la actividad sísmica.
Magnitud mínima muestra es 2,5.

Temperaturas de aguas costeras

Lugar Temperatura
Portland, ME 62.1 ° F
Wells, ME 61.0 ° F

Estaciones meteorológicas cercanas